createdAt,value
2023-03-06T00:04:02.248Z,9.30
2023-03-06T00:09:03.954Z,9.73
2023-03-06T00:14:05.657Z,9.70
2023-03-06T00:19:07.364Z,9.48
2023-03-06T00:24:09.028Z,10.13
2023-03-06T00:29:10.627Z,10.13
2023-03-06T00:34:12.261Z,10.10
2023-03-06T00:39:13.996Z,10.25
2023-03-06T00:44:15.680Z,10.85
2023-03-06T00:49:17.287Z,11.38
2023-03-06T00:54:18.962Z,10.50
2023-03-06T00:59:20.673Z,10.73
2023-03-06T01:04:22.564Z,10.27
2023-03-06T01:09:24.726Z,10.77
2023-03-06T01:14:26.455Z,10.65
2023-03-06T01:19:28.224Z,10.18
2023-03-06T01:24:29.888Z,10.20
2023-03-06T01:29:31.529Z,10.10
2023-03-06T01:34:33.154Z,10.65
2023-03-06T01:39:34.775Z,11.82
2023-03-06T01:44:36.397Z,12.63
2023-03-06T01:49:41.406Z,12.98
2023-03-06T01:54:43.011Z,12.95
2023-03-06T01:59:47.917Z,14.43
2023-03-06T02:04:49.628Z,13.80
2023-03-06T02:09:51.276Z,14.45
2023-03-06T02:14:53.585Z,14.98
2023-03-06T02:20:20.830Z,15.27
2023-03-06T02:25:35.863Z,14.60
2023-03-06T02:30:37.613Z,16.52
2023-03-06T02:35:40.790Z,16.10
2023-03-06T02:40:44.805Z,16.48
2023-03-06T02:45:48.726Z,16.35
2023-03-06T02:50:50.488Z,16.83
2023-03-06T02:55:52.376Z,16.95
2023-03-06T03:00:54.019Z,17.42
2023-03-06T03:05:55.687Z,17.35
2023-03-06T03:10:57.690Z,17.02
2023-03-06T03:16:07.012Z,16.80
2023-03-06T03:21:10.275Z,17.05
2023-03-06T03:26:20.722Z,16.45
2023-03-06T03:31:22.481Z,15.63
2023-03-06T03:36:24.718Z,15.18
2023-03-06T03:41:26.377Z,14.82
2023-03-06T03:46:28.276Z,14.23
2023-03-06T03:51:30.078Z,13.90
2023-03-06T03:56:32.317Z,14.85
2023-03-06T04:01:34.230Z,14.68
2023-03-06T04:06:35.921Z,15.73
2023-03-06T04:11:37.622Z,16.33
2023-03-06T04:16:39.263Z,14.93
2023-03-06T04:21:40.993Z,15.70
2023-03-06T04:26:42.651Z,14.57
2023-03-06T04:31:44.419Z,14.98
2023-03-06T04:36:46.224Z,14.32
2023-03-06T04:41:47.878Z,14.52
2023-03-06T04:46:49.827Z,14.77
2023-03-06T04:51:51.529Z,14.55
2023-03-06T04:56:53.163Z,14.77
2023-03-06T05:01:54.995Z,13.40
2023-03-06T05:06:56.634Z,14.85
2023-03-06T05:11:58.331Z,14.70
2023-03-06T05:17:00.091Z,15.15
2023-03-06T05:22:01.830Z,14.52
2023-03-06T05:27:04.394Z,15.70
2023-03-06T05:32:06.284Z,22.40
2023-03-06T05:37:08.366Z,24.23
2023-03-06T05:42:10.153Z,27.17
2023-03-06T05:47:12.205Z,28.33
2023-03-06T05:52:14.918Z,37.05
2023-03-06T05:57:16.672Z,16.25
2023-03-06T06:02:19.057Z,14.50
2023-03-06T06:07:20.782Z,15.68
2023-03-06T06:12:22.460Z,15.70
2023-03-06T06:17:24.092Z,15.98
2023-03-06T06:22:25.715Z,14.75
2023-03-06T06:27:27.415Z,16.70
2023-03-06T06:32:29.137Z,17.08
2023-03-06T06:37:31.454Z,17.83
2023-03-06T06:42:38.948Z,17.92
2023-03-06T06:47:41.783Z,17.42
2023-03-06T06:52:43.726Z,17.88
2023-03-06T06:57:45.346Z,17.73
2023-03-06T07:02:49.329Z,22.45
2023-03-06T07:07:51.533Z,19.40
2023-03-06T07:12:53.416Z,17.13
2023-03-06T07:17:55.151Z,16.77
2023-03-06T07:22:56.849Z,17.83
2023-03-06T07:27:59.025Z,16.10
2023-03-06T07:33:00.741Z,16.35
2023-03-06T07:38:02.524Z,15.73
2023-03-06T07:43:18.286Z,16.15
2023-03-06T07:48:20.619Z,16.65
2023-03-06T07:53:22.747Z,15.77
2023-03-06T07:58:24.543Z,16.27
2023-03-06T08:03:26.293Z,15.88
2023-03-06T08:08:27.955Z,15.82
2023-03-06T08:13:29.578Z,16.55
2023-03-06T08:18:31.241Z,16.55
2023-03-06T08:23:34.053Z,15.43
2023-03-06T08:28:35.793Z,16.40
2023-03-06T08:33:37.644Z,16.00
2023-03-06T08:38:39.282Z,14.77
2023-03-06T08:43:40.962Z,16.13
2023-03-06T08:48:42.616Z,14.88
2023-03-06T08:53:44.890Z,14.90
2023-03-06T08:58:49.634Z,15.63
2023-03-06T09:03:53.245Z,14.48
2023-03-06T09:08:55.093Z,14.63
2023-03-06T09:13:57.330Z,14.77
2023-03-06T09:18:59.030Z,14.23
2023-03-06T09:24:00.703Z,13.95
2023-03-06T09:29:02.675Z,14.38
2023-03-06T09:34:04.359Z,15.05
2023-03-06T09:39:05.977Z,14.57
2023-03-06T09:44:15.186Z,14.63
2023-03-06T09:49:19.782Z,14.82
2023-03-06T09:54:31.452Z,15.25
2023-03-06T09:59:33.460Z,15.07
2023-03-06T10:04:40.695Z,15.65
2023-03-06T10:09:48.528Z,13.95
2023-03-06T10:15:16.294Z,13.95
2023-03-06T10:20:22.718Z,12.80
2023-03-06T10:25:30.884Z,12.25
2023-03-06T10:30:46.570Z,11.40
2023-03-06T10:35:49.647Z,12.10
2023-03-06T10:41:13.432Z,9.68
2023-03-06T10:46:31.166Z,10.27
2023-03-06T10:51:34.628Z,10.95
2023-03-06T10:56:39.582Z,11.27
2023-03-06T11:01:44.628Z,12.00
2023-03-06T11:06:46.299Z,12.50
2023-03-06T11:11:48.474Z,11.88
2023-03-06T11:16:53.822Z,12.77
2023-03-06T11:22:01.452Z,12.27
2023-03-06T11:27:22.391Z,12.00
2023-03-06T11:32:45.523Z,12.55
2023-03-06T11:37:54.120Z,12.10
2023-03-06T11:43:20.281Z,11.75
2023-03-06T11:48:28.868Z,11.55
2023-03-06T11:53:39.487Z,11.30
2023-03-06T11:59:07.752Z,10.88
2023-03-06T12:04:37.468Z,11.60
2023-03-06T12:09:44.384Z,11.70
2023-03-06T12:14:57.971Z,11.95
2023-03-06T12:20:29.112Z,12.18
2023-03-06T12:25:42.183Z,12.30
2023-03-06T12:31:19.692Z,11.75
2023-03-06T12:36:33.382Z,11.88
2023-03-06T12:41:50.105Z,11.85
2023-03-06T12:46:59.186Z,10.80
2023-03-06T12:52:02.562Z,11.30
2023-03-06T12:57:08.550Z,11.80
2023-03-06T13:02:28.880Z,12.00
2023-03-06T13:07:33.345Z,11.73
2023-03-06T13:12:40.646Z,11.80
2023-03-06T13:17:42.324Z,37.75
2023-03-06T13:22:46.287Z,11.60
2023-03-06T13:28:03.290Z,11.98
2023-03-06T13:33:26.938Z,11.57
2023-03-06T13:38:41.393Z,11.23
2023-03-06T13:43:45.349Z,11.60
2023-03-06T13:49:08.848Z,11.70
2023-03-06T13:54:28.370Z,12.85
2023-03-06T14:00:10.061Z,12.70
2023-03-06T14:05:17.044Z,12.40
2023-03-06T14:10:26.104Z,12.82
2023-03-06T14:15:39.957Z,13.00
2023-03-06T14:20:44.321Z,13.20
2023-03-06T14:25:46.729Z,14.82
2023-03-06T14:30:52.891Z,14.98
2023-03-06T14:35:58.618Z,14.65
2023-03-06T14:41:01.012Z,14.93
2023-03-06T14:46:06.500Z,14.55
2023-03-06T14:51:14.580Z,14.50
2023-03-06T14:56:22.113Z,15.35
2023-03-06T15:01:33.075Z,14.75
2023-03-06T15:06:43.622Z,13.98
2023-03-06T15:11:55.217Z,13.63
2023-03-06T15:16:56.908Z,13.55
2023-03-06T15:21:58.770Z,13.13
2023-03-06T15:27:16.453Z,13.25
2023-03-06T15:32:31.498Z,20.17
2023-03-06T15:37:34.308Z,15.70
2023-03-06T15:42:36.737Z,13.70
2023-03-06T15:47:38.999Z,12.98
2023-03-06T15:52:40.685Z,13.20
2023-03-06T15:57:51.334Z,13.75
2023-03-06T16:02:53.435Z,12.43
2023-03-06T16:07:55.702Z,13.32
2023-03-06T16:13:03.122Z,12.25
2023-03-06T16:18:06.257Z,12.02
2023-03-06T16:23:10.577Z,11.38
2023-03-06T16:28:14.724Z,11.38
2023-03-06T16:33:16.435Z,12.05
2023-03-06T16:38:18.074Z,12.20
2023-03-06T16:43:19.724Z,11.93
2023-03-06T16:48:21.374Z,12.70
2023-03-06T16:53:23.000Z,12.30
2023-03-06T16:58:24.735Z,11.85
2023-03-06T17:03:26.430Z,11.93
2023-03-06T17:08:28.146Z,11.68
2023-03-06T17:13:29.872Z,12.05
2023-03-06T17:18:31.876Z,11.90
2023-03-06T17:23:33.523Z,12.05
2023-03-06T17:28:36.877Z,12.85
2023-03-06T17:33:38.543Z,12.55
2023-03-06T17:38:40.656Z,13.77
2023-03-06T17:43:42.351Z,13.70
2023-03-06T17:48:44.684Z,13.90
2023-03-06T17:53:46.327Z,15.45
2023-03-06T17:58:47.943Z,20.83
2023-03-06T18:03:51.565Z,21.73
2023-03-06T18:08:54.040Z,29.50
2023-03-06T18:13:55.721Z,13.75
2023-03-06T18:18:57.723Z,12.77
2023-03-06T18:23:59.472Z,12.90
2023-03-06T18:29:04.461Z,12.38
2023-03-06T18:34:13.428Z,13.35
2023-03-06T18:39:15.825Z,13.77
2023-03-06T18:44:17.723Z,13.45
2023-03-06T18:49:19.439Z,13.23
2023-03-06T18:54:21.067Z,12.90
2023-03-06T18:59:22.738Z,13.80
2023-03-06T19:04:26.232Z,14.77
2023-03-06T19:09:27.972Z,14.77
2023-03-06T19:14:29.935Z,14.70
2023-03-06T19:19:32.406Z,14.48
2023-03-06T19:24:34.870Z,14.73
2023-03-06T19:29:39.409Z,14.82
2023-03-06T19:34:41.067Z,14.50
2023-03-06T19:39:43.236Z,14.93
2023-03-06T19:44:44.996Z,15.02
2023-03-06T19:49:46.608Z,14.40
2023-03-06T19:54:48.464Z,16.10
2023-03-06T19:59:51.482Z,21.08
2023-03-06T20:04:55.968Z,14.63
2023-03-06T20:10:00.759Z,15.73
2023-03-06T20:15:02.491Z,15.40
2023-03-06T20:20:04.391Z,14.27
2023-03-06T20:25:06.292Z,14.85
2023-03-06T20:30:08.758Z,14.50
2023-03-06T20:35:10.431Z,14.77
2023-03-06T20:40:12.483Z,14.73
2023-03-06T20:45:15.553Z,15.52
2023-03-06T20:50:17.249Z,15.68
2023-03-06T20:55:18.989Z,15.80
2023-03-06T21:00:21.124Z,16.75
2023-03-06T21:05:23.059Z,16.42
2023-03-06T21:10:24.823Z,15.73
2023-03-06T21:15:29.968Z,16.17
2023-03-06T21:20:31.840Z,16.13
2023-03-06T21:25:33.655Z,16.27
2023-03-06T21:30:35.298Z,16.38
2023-03-06T21:35:38.290Z,17.17
2023-03-06T21:40:40.002Z,16.55
2023-03-06T21:45:46.144Z,16.17
2023-03-06T21:50:47.957Z,16.73
2023-03-06T21:55:49.594Z,17.73
2023-03-06T22:00:51.328Z,17.88
2023-03-06T22:05:53.283Z,17.10
2023-03-06T22:10:54.928Z,18.02
2023-03-06T22:15:56.872Z,16.98
2023-03-06T22:20:58.654Z,17.23
2023-03-06T22:26:05.322Z,17.92
2023-03-06T22:31:12.095Z,18.35
2023-03-06T22:36:15.561Z,18.42
2023-03-06T22:41:18.131Z,19.38
2023-03-06T22:46:19.845Z,18.80
2023-03-06T22:51:21.728Z,19.92
2023-03-06T22:56:23.944Z,21.17
2023-03-06T23:01:30.985Z,22.52
2023-03-06T23:06:35.588Z,22.13
2023-03-06T23:11:37.197Z,22.13
2023-03-06T23:16:39.206Z,23.38
2023-03-06T23:21:41.930Z,23.35
2023-03-06T23:26:43.728Z,23.95
2023-03-06T23:31:45.336Z,23.05
2023-03-06T23:36:46.996Z,21.85
2023-03-06T23:41:48.582Z,21.83
2023-03-06T23:46:50.280Z,21.15
2023-03-06T23:51:51.959Z,22.05
2023-03-06T23:56:53.629Z,22.45
